sensor_id;sensor_type;location;lat;lon;timestamp;P1;durP1;ratioP1;P2;durP2;ratioP2
19347;SDS011;9810;52.480;9.806;2024-01-30T00:00:33;8.93;;;6.23;;
19347;SDS011;9810;52.480;9.806;2024-01-30T00:03:00;10.70;;;6.57;;
19347;SDS011;9810;52.480;9.806;2024-01-30T00:05:27;11.37;;;6.60;;
19347;SDS011;9810;52.480;9.806;2024-01-30T00:07:54;11.17;;;5.80;;
19347;SDS011;9810;52.480;9.806;2024-01-30T00:10:22;11.37;;;7.27;;
19347;SDS011;9810;52.480;9.806;2024-01-30T00:12:51;11.53;;;7.43;;
19347;SDS011;9810;52.480;9.806;2024-01-30T00:15:18;11.27;;;7.10;;
19347;SDS011;9810;52.480;9.806;2024-01-30T00:17:45;11.57;;;6.93;;
19347;SDS011;9810;52.480;9.806;2024-01-30T00:20:13;10.90;;;7.03;;
19347;SDS011;9810;52.480;9.806;2024-01-30T00:22:40;8.13;;;6.13;;
19347;SDS011;9810;52.480;9.806;2024-01-30T00:25:07;10.63;;;6.30;;
19347;SDS011;9810;52.480;9.806;2024-01-30T00:27:35;12.80;;;6.53;;
19347;SDS011;9810;52.480;9.806;2024-01-30T00:30:04;10.47;;;6.60;;
19347;SDS011;9810;52.480;9.806;2024-01-30T00:32:32;12.13;;;6.57;;
19347;SDS011;9810;52.480;9.806;2024-01-30T00:34:59;9.20;;;5.93;;
19347;SDS011;9810;52.480;9.806;2024-01-30T00:37:26;9.53;;;6.40;;
19347;SDS011;9810;52.480;9.806;2024-01-30T00:39:53;10.27;;;6.33;;
19347;SDS011;9810;52.480;9.806;2024-01-30T00:42:21;9.33;;;6.53;;
19347;SDS011;9810;52.480;9.806;2024-01-30T00:44:50;9.57;;;6.80;;
19347;SDS011;9810;52.480;9.806;2024-01-30T00:47:19;9.03;;;6.07;;
19347;SDS011;9810;52.480;9.806;2024-01-30T00:49:46;9.73;;;6.23;;
19347;SDS011;9810;52.480;9.806;2024-01-30T00:52:13;7.83;;;5.67;;
19347;SDS011;9810;52.480;9.806;2024-01-30T00:54:40;11.37;;;6.93;;
19347;SDS011;9810;52.480;9.806;2024-01-30T00:57:08;9.80;;;6.50;;
19347;SDS011;9810;52.480;9.806;2024-01-30T00:59:35;8.87;;;6.70;;
19347;SDS011;9810;52.480;9.806;2024-01-30T01:02:02;10.53;;;6.50;;
19347;SDS011;9810;52.480;9.806;2024-01-30T01:04:31;9.17;;;6.63;;
19347;SDS011;9810;52.480;9.806;2024-01-30T01:06:59;10.27;;;7.03;;
19347;SDS011;9810;52.480;9.806;2024-01-30T01:09:26;10.00;;;7.37;;
19347;SDS011;9810;52.480;9.806;2024-01-30T01:11:53;12.40;;;7.50;;
19347;SDS011;9810;52.480;9.806;2024-01-30T01:14:20;15.53;;;7.70;;
19347;SDS011;9810;52.480;9.806;2024-01-30T01:16:47;13.03;;;8.03;;
19347;SDS011;9810;52.480;9.806;2024-01-30T01:19:15;12.33;;;7.37;;
19347;SDS011;9810;52.480;9.806;2024-01-30T01:21:44;8.87;;;6.43;;
19347;SDS011;9810;52.480;9.806;2024-01-30T01:24:11;12.10;;;7.13;;
19347;SDS011;9810;52.480;9.806;2024-01-30T01:26:38;12.60;;;7.43;;
19347;SDS011;9810;52.480;9.806;2024-01-30T01:29:06;10.27;;;6.57;;
19347;SDS011;9810;52.480;9.806;2024-01-30T01:31:35;11.67;;;7.40;;
19347;SDS011;9810;52.480;9.806;2024-01-30T01:34:08;10.03;;;7.30;;
19347;SDS011;9810;52.480;9.806;2024-01-30T01:36:35;10.27;;;6.57;;
19347;SDS011;9810;52.480;9.806;2024-01-30T01:39:04;12.13;;;7.40;;
19347;SDS011;9810;52.480;9.806;2024-01-30T01:41:32;11.37;;;7.50;;
19347;SDS011;9810;52.480;9.806;2024-01-30T01:43:59;10.73;;;7.43;;
19347;SDS011;9810;52.480;9.806;2024-01-30T01:46:27;14.77;;;7.80;;
19347;SDS011;9810;52.480;9.806;2024-01-30T01:48:54;12.10;;;7.20;;
19347;SDS011;9810;52.480;9.806;2024-01-30T01:51:22;11.53;;;7.13;;
19347;SDS011;9810;52.480;9.806;2024-01-30T01:53:50;11.27;;;7.40;;
19347;SDS011;9810;52.480;9.806;2024-01-30T01:56:19;12.90;;;6.97;;
19347;SDS011;9810;52.480;9.806;2024-01-30T01:58:46;13.47;;;7.20;;
19347;SDS011;9810;52.480;9.806;2024-01-30T02:01:14;10.47;;;7.20;;
19347;SDS011;9810;52.480;9.806;2024-01-30T02:03:43;11.13;;;7.70;;
19347;SDS011;9810;52.480;9.806;2024-01-30T02:06:10;11.90;;;7.03;;
19347;SDS011;9810;52.480;9.806;2024-01-30T02:08:37;12.93;;;7.63;;
19347;SDS011;9810;52.480;9.806;2024-01-30T02:11:04;11.63;;;7.63;;
19347;SDS011;9810;52.480;9.806;2024-01-30T02:13:33;11.20;;;7.80;;
19347;SDS011;9810;52.480;9.806;2024-01-30T02:16:01;12.10;;;7.27;;
19347;SDS011;9810;52.480;9.806;2024-01-30T02:18:28;13.43;;;7.40;;
19347;SDS011;9810;52.480;9.806;2024-01-30T02:20:56;11.47;;;8.00;;
19347;SDS011;9810;52.480;9.806;2024-01-30T02:23:25;12.23;;;7.83;;
19347;SDS011;9810;52.480;9.806;2024-01-30T02:25:52;10.43;;;7.20;;
19347;SDS011;9810;52.480;9.806;2024-01-30T02:28:20;10.83;;;7.23;;
19347;SDS011;9810;52.480;9.806;2024-01-30T02:30:47;11.70;;;7.60;;
19347;SDS011;9810;52.480;9.806;2024-01-30T02:33:14;11.47;;;7.33;;
19347;SDS011;9810;52.480;9.806;2024-01-30T02:35:42;11.63;;;7.70;;
19347;SDS011;9810;52.480;9.806;2024-01-30T02:38:09;13.07;;;7.90;;
19347;SDS011;9810;52.480;9.806;2024-01-30T02:40:38;11.20;;;7.33;;
19347;SDS011;9810;52.480;9.806;2024-01-30T02:43:05;12.87;;;7.43;;
19347;SDS011;9810;52.480;9.806;2024-01-30T02:45:32;11.97;;;7.37;;
19347;SDS011;9810;52.480;9.806;2024-01-30T02:47:59;14.67;;;9.13;;
19347;SDS011;9810;52.480;9.806;2024-01-30T02:50:27;12.70;;;7.47;;
19347;SDS011;9810;52.480;9.806;2024-01-30T02:52:54;12.00;;;7.97;;
19347;SDS011;9810;52.480;9.806;2024-01-30T02:55:21;11.30;;;7.37;;
19347;SDS011;9810;52.480;9.806;2024-01-30T02:57:50;14.77;;;7.60;;
19347;SDS011;9810;52.480;9.806;2024-01-30T03:00:18;12.50;;;7.50;;
19347;SDS011;9810;52.480;9.806;2024-01-30T03:02:45;11.43;;;7.50;;
19347;SDS011;9810;52.480;9.806;2024-01-30T03:05:12;12.70;;;8.00;;
19347;SDS011;9810;52.480;9.806;2024-01-30T03:07:39;10.40;;;7.97;;
19347;SDS011;9810;52.480;9.806;2024-01-30T03:10:07;11.67;;;8.07;;
19347;SDS011;9810;52.480;9.806;2024-01-30T03:12:34;14.23;;;8.07;;
19347;SDS011;9810;52.480;9.806;2024-01-30T03:15:03;12.70;;;7.43;;
19347;SDS011;9810;52.480;9.806;2024-01-30T03:17:31;11.33;;;7.37;;
19347;SDS011;9810;52.480;9.806;2024-01-30T03:19:58;13.10;;;7.87;;
19347;SDS011;9810;52.480;9.806;2024-01-30T03:22:25;12.77;;;8.23;;
19347;SDS011;9810;52.480;9.806;2024-01-30T03:24:52;13.07;;;8.03;;
19347;SDS011;9810;52.480;9.806;2024-01-30T03:27:20;11.73;;;8.50;;
19347;SDS011;9810;52.480;9.806;2024-01-30T03:29:47;12.20;;;7.57;;
19347;SDS011;9810;52.480;9.806;2024-01-30T03:32:16;11.40;;;7.70;;
19347;SDS011;9810;52.480;9.806;2024-01-30T03:34:43;11.03;;;8.40;;
19347;SDS011;9810;52.480;9.806;2024-01-30T03:37:10;17.23;;;8.27;;
19347;SDS011;9810;52.480;9.806;2024-01-30T03:39:37;14.37;;;8.57;;
19347;SDS011;9810;52.480;9.806;2024-01-30T03:42:05;10.53;;;7.83;;
19347;SDS011;9810;52.480;9.806;2024-01-30T03:44:32;11.73;;;8.67;;
19347;SDS011;9810;52.480;9.806;2024-01-30T03:46:59;13.50;;;8.53;;
19347;SDS011;9810;52.480;9.806;2024-01-30T03:49:28;12.73;;;8.50;;
19347;SDS011;9810;52.480;9.806;2024-01-30T03:51:55;10.87;;;8.57;;
19347;SDS011;9810;52.480;9.806;2024-01-30T03:54:22;15.83;;;8.03;;
19347;SDS011;9810;52.480;9.806;2024-01-30T03:56:50;12.47;;;8.20;;
19347;SDS011;9810;52.480;9.806;2024-01-30T03:59:17;14.23;;;9.10;;
19347;SDS011;9810;52.480;9.806;2024-01-30T04:01:49;10.00;;;8.13;;
19347;SDS011;9810;52.480;9.806;2024-01-30T04:04:16;11.83;;;7.03;;
19347;SDS011;9810;52.480;9.806;2024-01-30T04:06:45;12.73;;;8.17;;
19347;SDS011;9810;52.480;9.806;2024-01-30T04:09:12;11.37;;;8.27;;
19347;SDS011;9810;52.480;9.806;2024-01-30T04:11:40;22.43;;;8.53;;
19347;SDS011;9810;52.480;9.806;2024-01-30T04:14:07;14.47;;;8.30;;
19347;SDS011;9810;52.480;9.806;2024-01-30T04:16:35;12.97;;;8.00;;
19347;SDS011;9810;52.480;9.806;2024-01-30T04:19:02;10.77;;;7.80;;
19347;SDS011;9810;52.480;9.806;2024-01-30T04:21:29;14.40;;;9.67;;
19347;SDS011;9810;52.480;9.806;2024-01-30T04:23:58;9.70;;;7.60;;
19347;SDS011;9810;52.480;9.806;2024-01-30T04:26:25;10.23;;;6.80;;
19347;SDS011;9810;52.480;9.806;2024-01-30T04:28:52;13.00;;;7.63;;
19347;SDS011;9810;52.480;9.806;2024-01-30T04:31:20;13.10;;;8.57;;
19347;SDS011;9810;52.480;9.806;2024-01-30T04:33:46;11.67;;;7.97;;
19347;SDS011;9810;52.480;9.806;2024-01-30T04:36:13;11.67;;;8.50;;
19347;SDS011;9810;52.480;9.806;2024-01-30T04:38:40;14.53;;;8.70;;
19347;SDS011;9810;52.480;9.806;2024-01-30T04:41:10;15.63;;;8.27;;
19347;SDS011;9810;52.480;9.806;2024-01-30T04:43:37;11.50;;;7.60;;
19347;SDS011;9810;52.480;9.806;2024-01-30T04:46:04;12.37;;;8.40;;
19347;SDS011;9810;52.480;9.806;2024-01-30T04:48:31;13.43;;;7.87;;
19347;SDS011;9810;52.480;9.806;2024-01-30T04:50:59;14.03;;;8.23;;
19347;SDS011;9810;52.480;9.806;2024-01-30T04:53:28;11.20;;;7.27;;
19347;SDS011;9810;52.480;9.806;2024-01-30T04:55:55;11.67;;;7.90;;
19347;SDS011;9810;52.480;9.806;2024-01-30T04:58:24;13.20;;;7.40;;
19347;SDS011;9810;52.480;9.806;2024-01-30T05:00:51;12.53;;;8.13;;
19347;SDS011;9810;52.480;9.806;2024-01-30T05:03:18;12.97;;;8.10;;
19347;SDS011;9810;52.480;9.806;2024-01-30T05:05:47;9.27;;;7.00;;
19347;SDS011;9810;52.480;9.806;2024-01-30T05:08:15;12.90;;;7.43;;
19347;SDS011;9810;52.480;9.806;2024-01-30T05:10:42;11.40;;;7.37;;
19347;SDS011;9810;52.480;9.806;2024-01-30T05:13:10;11.07;;;6.90;;
19347;SDS011;9810;52.480;9.806;2024-01-30T05:15:40;10.80;;;7.37;;
19347;SDS011;9810;52.480;9.806;2024-01-30T05:18:07;11.63;;;7.43;;
19347;SDS011;9810;52.480;9.806;2024-01-30T05:20:35;10.73;;;7.33;;
19347;SDS011;9810;52.480;9.806;2024-01-30T05:23:02;10.20;;;7.30;;
19347;SDS011;9810;52.480;9.806;2024-01-30T05:25:29;13.07;;;8.10;;
19347;SDS011;9810;52.480;9.806;2024-01-30T05:27:56;13.43;;;8.20;;
19347;SDS011;9810;52.480;9.806;2024-01-30T05:30:24;12.57;;;7.77;;
19347;SDS011;9810;52.480;9.806;2024-01-30T05:32:53;13.87;;;7.57;;
19347;SDS011;9810;52.480;9.806;2024-01-30T05:35:20;11.07;;;7.80;;
19347;SDS011;9810;52.480;9.806;2024-01-30T05:37:47;12.57;;;8.13;;
19347;SDS011;9810;52.480;9.806;2024-01-30T05:40:15;11.80;;;7.53;;
19347;SDS011;9810;52.480;9.806;2024-01-30T05:42:42;11.33;;;7.30;;
19347;SDS011;9810;52.480;9.806;2024-01-30T05:45:10;12.70;;;7.67;;
19347;SDS011;9810;52.480;9.806;2024-01-30T05:47:37;11.40;;;6.93;;
19347;SDS011;9810;52.480;9.806;2024-01-30T05:50:07;14.37;;;7.80;;
19347;SDS011;9810;52.480;9.806;2024-01-30T05:52:34;11.27;;;7.33;;
19347;SDS011;9810;52.480;9.806;2024-01-30T05:55:02;10.30;;;6.80;;
19347;SDS011;9810;52.480;9.806;2024-01-30T05:57:29;11.57;;;7.33;;
19347;SDS011;9810;52.480;9.806;2024-01-30T05:59:57;14.50;;;7.63;;
19347;SDS011;9810;52.480;9.806;2024-01-30T06:02:24;11.23;;;7.13;;
19347;SDS011;9810;52.480;9.806;2024-01-30T06:04:51;13.47;;;7.10;;
19347;SDS011;9810;52.480;9.806;2024-01-30T06:07:20;11.50;;;7.00;;
19347;SDS011;9810;52.480;9.806;2024-01-30T06:09:48;12.63;;;6.83;;
19347;SDS011;9810;52.480;9.806;2024-01-30T06:12:15;13.90;;;7.03;;
19347;SDS011;9810;52.480;9.806;2024-01-30T06:14:42;9.73;;;7.10;;
19347;SDS011;9810;52.480;9.806;2024-01-30T06:17:09;11.83;;;7.10;;
19347;SDS011;9810;52.480;9.806;2024-01-30T06:19:37;9.80;;;7.33;;
19347;SDS011;9810;52.480;9.806;2024-01-30T06:22:04;11.83;;;7.23;;
19347;SDS011;9810;52.480;9.806;2024-01-30T06:24:33;9.43;;;7.17;;
19347;SDS011;9810;52.480;9.806;2024-01-30T06:27:01;11.10;;;6.40;;
19347;SDS011;9810;52.480;9.806;2024-01-30T06:29:28;13.33;;;6.97;;
19347;SDS011;9810;52.480;9.806;2024-01-30T06:31:55;11.43;;;7.13;;
19347;SDS011;9810;52.480;9.806;2024-01-30T06:34:22;14.70;;;6.97;;
19347;SDS011;9810;52.480;9.806;2024-01-30T06:36:51;10.50;;;7.40;;
19347;SDS011;9810;52.480;9.806;2024-01-30T06:39:18;11.63;;;7.03;;
19347;SDS011;9810;52.480;9.806;2024-01-30T06:41:47;11.07;;;7.40;;
19347;SDS011;9810;52.480;9.806;2024-01-30T06:44:14;13.53;;;8.37;;
19347;SDS011;9810;52.480;9.806;2024-01-30T06:46:42;12.63;;;8.30;;
19347;SDS011;9810;52.480;9.806;2024-01-30T06:49:09;14.20;;;8.33;;
19347;SDS011;9810;52.480;9.806;2024-01-30T06:51:36;13.23;;;8.27;;
19347;SDS011;9810;52.480;9.806;2024-01-30T06:54:03;14.47;;;8.73;;
19347;SDS011;9810;52.480;9.806;2024-01-30T06:56:31;12.50;;;7.93;;
19347;SDS011;9810;52.480;9.806;2024-01-30T06:59:00;13.97;;;8.20;;
19347;SDS011;9810;52.480;9.806;2024-01-30T07:01:27;14.30;;;7.63;;
19347;SDS011;9810;52.480;9.806;2024-01-30T07:03:55;15.13;;;7.73;;
19347;SDS011;9810;52.480;9.806;2024-01-30T07:06:22;12.27;;;7.40;;
19347;SDS011;9810;52.480;9.806;2024-01-30T07:08:49;13.80;;;7.30;;
19347;SDS011;9810;52.480;9.806;2024-01-30T07:11:18;13.97;;;8.17;;
19347;SDS011;9810;52.480;9.806;2024-01-30T07:13:47;14.53;;;7.43;;
19347;SDS011;9810;52.480;9.806;2024-01-30T07:16:16;12.20;;;8.40;;
19347;SDS011;9810;52.480;9.806;2024-01-30T07:18:43;12.40;;;7.07;;
19347;SDS011;9810;52.480;9.806;2024-01-30T07:21:11;10.70;;;6.40;;
19347;SDS011;9810;52.480;9.806;2024-01-30T07:23:38;10.67;;;6.70;;
19347;SDS011;9810;52.480;9.806;2024-01-30T07:26:07;8.60;;;5.73;;
19347;SDS011;9810;52.480;9.806;2024-01-30T07:28:34;10.90;;;5.70;;
19347;SDS011;9810;52.480;9.806;2024-01-30T07:31:02;12.37;;;7.13;;
19347;SDS011;9810;52.480;9.806;2024-01-30T07:33:31;10.27;;;6.90;;
19347;SDS011;9810;52.480;9.806;2024-01-30T07:35:59;13.30;;;7.10;;
19347;SDS011;9810;52.480;9.806;2024-01-30T07:38:26;10.63;;;6.77;;
19347;SDS011;9810;52.480;9.806;2024-01-30T07:40:53;11.57;;;6.80;;
19347;SDS011;9810;52.480;9.806;2024-01-30T07:43:20;12.37;;;7.57;;
19347;SDS011;9810;52.480;9.806;2024-01-30T07:45:48;10.70;;;7.23;;
19347;SDS011;9810;52.480;9.806;2024-01-30T07:48:15;10.30;;;6.87;;
19347;SDS011;9810;52.480;9.806;2024-01-30T07:50:44;8.73;;;6.73;;
19347;SDS011;9810;52.480;9.806;2024-01-30T07:53:11;10.13;;;6.20;;
19347;SDS011;9810;52.480;9.806;2024-01-30T07:55:38;10.23;;;7.03;;
19347;SDS011;9810;52.480;9.806;2024-01-30T07:58:06;11.97;;;7.23;;
19347;SDS011;9810;52.480;9.806;2024-01-30T08:00:33;11.73;;;6.80;;
19347;SDS011;9810;52.480;9.806;2024-01-30T08:03:02;9.60;;;6.77;;
19347;SDS011;9810;52.480;9.806;2024-01-30T08:05:29;11.33;;;6.60;;
19347;SDS011;9810;52.480;9.806;2024-01-30T08:07:58;10.57;;;6.20;;
19347;SDS011;9810;52.480;9.806;2024-01-30T08:10:25;12.27;;;7.60;;
19347;SDS011;9810;52.480;9.806;2024-01-30T08:12:52;12.17;;;7.37;;
19347;SDS011;9810;52.480;9.806;2024-01-30T08:15:19;12.30;;;7.73;;
19347;SDS011;9810;52.480;9.806;2024-01-30T08:17:47;9.97;;;6.80;;
19347;SDS011;9810;52.480;9.806;2024-01-30T08:20:14;10.30;;;6.40;;
19347;SDS011;9810;52.480;9.806;2024-01-30T08:22:41;12.53;;;7.13;;
19347;SDS011;9810;52.480;9.806;2024-01-30T08:25:11;17.40;;;6.67;;
19347;SDS011;9810;52.480;9.806;2024-01-30T08:27:38;9.57;;;6.07;;
19347;SDS011;9810;52.480;9.806;2024-01-30T08:30:06;12.00;;;6.43;;
19347;SDS011;9810;52.480;9.806;2024-01-30T08:32:33;10.67;;;6.67;;
19347;SDS011;9810;52.480;9.806;2024-01-30T08:35:00;10.20;;;6.70;;
19347;SDS011;9810;52.480;9.806;2024-01-30T08:37:28;11.73;;;7.17;;
19347;SDS011;9810;52.480;9.806;2024-01-30T08:39:56;11.30;;;7.03;;
19347;SDS011;9810;52.480;9.806;2024-01-30T08:42:25;11.30;;;6.67;;
19347;SDS011;9810;52.480;9.806;2024-01-30T08:44:52;10.60;;;6.67;;
19347;SDS011;9810;52.480;9.806;2024-01-30T08:47:20;9.63;;;6.43;;
19347;SDS011;9810;52.480;9.806;2024-01-30T08:49:48;11.17;;;6.60;;
19347;SDS011;9810;52.480;9.806;2024-01-30T08:52:15;18.00;;;7.27;;
19347;SDS011;9810;52.480;9.806;2024-01-30T08:54:42;11.40;;;5.57;;
19347;SDS011;9810;52.480;9.806;2024-01-30T08:57:09;12.67;;;7.40;;
19347;SDS011;9810;52.480;9.806;2024-01-30T08:59:38;11.73;;;6.40;;
19347;SDS011;9810;52.480;9.806;2024-01-30T09:02:05;10.77;;;6.87;;
19347;SDS011;9810;52.480;9.806;2024-01-30T09:04:34;12.20;;;7.10;;
19347;SDS011;9810;52.480;9.806;2024-01-30T09:07:02;8.67;;;5.53;;
19347;SDS011;9810;52.480;9.806;2024-01-30T09:09:31;10.07;;;6.97;;
19347;SDS011;9810;52.480;9.806;2024-01-30T09:11:58;11.10;;;6.93;;
19347;SDS011;9810;52.480;9.806;2024-01-30T09:14:32;10.37;;;6.10;;
19347;SDS011;9810;52.480;9.806;2024-01-30T09:17:00;8.47;;;5.90;;
19347;SDS011;9810;52.480;9.806;2024-01-30T09:19:28;13.50;;;6.47;;
19347;SDS011;9810;52.480;9.806;2024-01-30T09:21:55;8.33;;;5.83;;
19347;SDS011;9810;52.480;9.806;2024-01-30T09:24:22;9.50;;;6.63;;
19347;SDS011;9810;52.480;9.806;2024-01-30T09:26:49;10.53;;;6.40;;
19347;SDS011;9810;52.480;9.806;2024-01-30T09:29:17;9.20;;;6.40;;
19347;SDS011;9810;52.480;9.806;2024-01-30T09:31:44;11.07;;;6.80;;
19347;SDS011;9810;52.480;9.806;2024-01-30T09:34:13;8.43;;;6.10;;
19347;SDS011;9810;52.480;9.806;2024-01-30T09:36:41;9.33;;;6.30;;
19347;SDS011;9810;52.480;9.806;2024-01-30T09:39:08;8.00;;;5.93;;
19347;SDS011;9810;52.480;9.806;2024-01-30T09:41:36;9.30;;;6.83;;
19347;SDS011;9810;52.480;9.806;2024-01-30T09:44:08;12.67;;;6.60;;
19347;SDS011;9810;52.480;9.806;2024-01-30T09:46:36;10.67;;;6.53;;
19347;SDS011;9810;52.480;9.806;2024-01-30T09:49:03;9.83;;;6.50;;
19347;SDS011;9810;52.480;9.806;2024-01-30T09:51:32;8.97;;;5.97;;
19347;SDS011;9810;52.480;9.806;2024-01-30T09:54:00;11.40;;;6.37;;
19347;SDS011;9810;52.480;9.806;2024-01-30T09:56:28;13.43;;;6.53;;
19347;SDS011;9810;52.480;9.806;2024-01-30T09:58:55;9.27;;;6.07;;
19347;SDS011;9810;52.480;9.806;2024-01-30T10:01:22;10.60;;;6.30;;
19347;SDS011;9810;52.480;9.806;2024-01-30T10:03:50;9.67;;;5.97;;
19347;SDS011;9810;52.480;9.806;2024-01-30T10:06:18;13.50;;;7.00;;
19347;SDS011;9810;52.480;9.806;2024-01-30T10:08:47;9.87;;;6.70;;
19347;SDS011;9810;52.480;9.806;2024-01-30T10:11:14;9.37;;;5.60;;
19347;SDS011;9810;52.480;9.806;2024-01-30T10:13:42;8.73;;;6.37;;
19347;SDS011;9810;52.480;9.806;2024-01-30T10:16:09;8.40;;;5.93;;
19347;SDS011;9810;52.480;9.806;2024-01-30T10:18:36;7.80;;;5.73;;
19347;SDS011;9810;52.480;9.806;2024-01-30T10:21:04;13.07;;;7.20;;
19347;SDS011;9810;52.480;9.806;2024-01-30T10:23:31;13.90;;;5.97;;
19347;SDS011;9810;52.480;9.806;2024-01-30T10:26:00;11.67;;;7.83;;
19347;SDS011;9810;52.480;9.806;2024-01-30T10:28:27;12.77;;;6.10;;
19347;SDS011;9810;52.480;9.806;2024-01-30T10:30:58;10.03;;;6.40;;
19347;SDS011;9810;52.480;9.806;2024-01-30T10:33:25;7.83;;;6.00;;
19347;SDS011;9810;52.480;9.806;2024-01-30T10:35:54;9.93;;;5.83;;
19347;SDS011;9810;52.480;9.806;2024-01-30T10:38:22;12.40;;;6.30;;
19347;SDS011;9810;52.480;9.806;2024-01-30T10:40:50;11.67;;;6.43;;
19347;SDS011;9810;52.480;9.806;2024-01-30T10:43:21;10.60;;;6.67;;
19347;SDS011;9810;52.480;9.806;2024-01-30T10:45:49;10.67;;;6.30;;
19347;SDS011;9810;52.480;9.806;2024-01-30T10:48:21;7.23;;;5.63;;
19347;SDS011;9810;52.480;9.806;2024-01-30T10:50:49;10.93;;;6.07;;
19347;SDS011;9810;52.480;9.806;2024-01-30T10:53:19;8.47;;;5.97;;
19347;SDS011;9810;52.480;9.806;2024-01-30T10:55:46;7.80;;;5.80;;
19347;SDS011;9810;52.480;9.806;2024-01-30T10:58:14;11.50;;;6.30;;
19347;SDS011;9810;52.480;9.806;2024-01-30T11:00:43;9.90;;;6.57;;
19347;SDS011;9810;52.480;9.806;2024-01-30T11:03:10;11.93;;;6.30;;
19347;SDS011;9810;52.480;9.806;2024-01-30T11:05:40;13.50;;;7.00;;
19347;SDS011;9810;52.480;9.806;2024-01-30T11:08:10;9.47;;;6.67;;
19347;SDS011;9810;52.480;9.806;2024-01-30T11:10:44;11.70;;;6.30;;
19347;SDS011;9810;52.480;9.806;2024-01-30T11:13:13;12.07;;;6.73;;
19347;SDS011;9810;52.480;9.806;2024-01-30T11:15:40;15.23;;;7.00;;
19347;SDS011;9810;52.480;9.806;2024-01-30T11:18:09;10.73;;;6.80;;
19347;SDS011;9810;52.480;9.806;2024-01-30T11:20:36;11.30;;;6.93;;
19347;SDS011;9810;52.480;9.806;2024-01-30T11:23:10;11.23;;;6.97;;
19347;SDS011;9810;52.480;9.806;2024-01-30T11:25:38;14.40;;;6.90;;
19347;SDS011;9810;52.480;9.806;2024-01-30T11:28:06;16.47;;;7.03;;
19347;SDS011;9810;52.480;9.806;2024-01-30T11:30:40;12.23;;;6.50;;
19347;SDS011;9810;52.480;9.806;2024-01-30T11:33:12;11.10;;;5.97;;
19347;SDS011;9810;52.480;9.806;2024-01-30T11:35:39;13.30;;;6.30;;
19347;SDS011;9810;52.480;9.806;2024-01-30T11:38:07;9.87;;;6.40;;
19347;SDS011;9810;52.480;9.806;2024-01-30T11:40:36;11.73;;;5.93;;
19347;SDS011;9810;52.480;9.806;2024-01-30T11:43:04;8.77;;;5.87;;
19347;SDS011;9810;52.480;9.806;2024-01-30T11:45:31;12.27;;;5.80;;
19347;SDS011;9810;52.480;9.806;2024-01-30T11:47:59;11.97;;;5.80;;
19347;SDS011;9810;52.480;9.806;2024-01-30T11:50:30;11.97;;;7.10;;
19347;SDS011;9810;52.480;9.806;2024-01-30T11:52:57;11.33;;;5.83;;
19347;SDS011;9810;52.480;9.806;2024-01-30T11:55:25;8.03;;;5.63;;
19347;SDS011;9810;52.480;9.806;2024-01-30T11:57:54;11.17;;;6.83;;
19347;SDS011;9810;52.480;9.806;2024-01-30T12:00:22;9.03;;;6.57;;
19347;SDS011;9810;52.480;9.806;2024-01-30T12:02:49;12.73;;;6.27;;
19347;SDS011;9810;52.480;9.806;2024-01-30T12:05:20;9.30;;;6.73;;
19347;SDS011;9810;52.480;9.806;2024-01-30T12:07:49;10.03;;;6.40;;
19347;SDS011;9810;52.480;9.806;2024-01-30T12:10:17;12.33;;;7.10;;
19347;SDS011;9810;52.480;9.806;2024-01-30T12:12:45;11.53;;;6.73;;
19347;SDS011;9810;52.480;9.806;2024-01-30T12:15:12;9.63;;;6.50;;
19347;SDS011;9810;52.480;9.806;2024-01-30T12:17:40;8.80;;;6.00;;
19347;SDS011;9810;52.480;9.806;2024-01-30T12:20:08;9.93;;;6.70;;
19347;SDS011;9810;52.480;9.806;2024-01-30T12:22:36;9.80;;;6.20;;
19347;SDS011;9810;52.480;9.806;2024-01-30T12:25:07;9.87;;;6.10;;
19347;SDS011;9810;52.480;9.806;2024-01-30T12:27:34;12.53;;;7.00;;
19347;SDS011;9810;52.480;9.806;2024-01-30T12:30:04;9.70;;;6.33;;
19347;SDS011;9810;52.480;9.806;2024-01-30T12:32:34;9.63;;;6.53;;
19347;SDS011;9810;52.480;9.806;2024-01-30T12:35:01;9.60;;;6.10;;
19347;SDS011;9810;52.480;9.806;2024-01-30T12:37:29;9.47;;;6.10;;
19347;SDS011;9810;52.480;9.806;2024-01-30T12:39:56;8.23;;;6.43;;
19347;SDS011;9810;52.480;9.806;2024-01-30T12:42:26;14.03;;;6.77;;
19347;SDS011;9810;52.480;9.806;2024-01-30T12:44:53;10.10;;;5.97;;
19347;SDS011;9810;52.480;9.806;2024-01-30T12:47:21;9.57;;;5.77;;
19347;SDS011;9810;52.480;9.806;2024-01-30T12:49:48;7.87;;;5.57;;
19347;SDS011;9810;52.480;9.806;2024-01-30T12:52:18;10.10;;;5.60;;
19347;SDS011;9810;52.480;9.806;2024-01-30T12:54:46;9.77;;;5.93;;
19347;SDS011;9810;52.480;9.806;2024-01-30T12:57:13;13.10;;;5.97;;
19347;SDS011;9810;52.480;9.806;2024-01-30T12:59:43;9.33;;;5.07;;
19347;SDS011;9810;52.480;9.806;2024-01-30T13:02:11;8.67;;;5.60;;
19347;SDS011;9810;52.480;9.806;2024-01-30T13:04:38;8.20;;;5.83;;
19347;SDS011;9810;52.480;9.806;2024-01-30T13:07:06;7.47;;;4.90;;
19347;SDS011;9810;52.480;9.806;2024-01-30T13:09:33;8.37;;;6.03;;
19347;SDS011;9810;52.480;9.806;2024-01-30T13:12:00;11.83;;;6.60;;
19347;SDS011;9810;52.480;9.806;2024-01-30T13:14:28;9.00;;;5.70;;
19347;SDS011;9810;52.480;9.806;2024-01-30T13:16:56;8.27;;;5.57;;
19347;SDS011;9810;52.480;9.806;2024-01-30T13:19:23;16.20;;;6.17;;
19347;SDS011;9810;52.480;9.806;2024-01-30T13:21:51;9.10;;;5.57;;
19347;SDS011;9810;52.480;9.806;2024-01-30T13:24:18;8.60;;;5.70;;
19347;SDS011;9810;52.480;9.806;2024-01-30T13:26:46;10.27;;;6.53;;
19347;SDS011;9810;52.480;9.806;2024-01-30T13:29:14;12.47;;;7.30;;
19347;SDS011;9810;52.480;9.806;2024-01-30T13:31:41;8.77;;;6.30;;
19347;SDS011;9810;52.480;9.806;2024-01-30T13:34:11;11.47;;;6.27;;
19347;SDS011;9810;52.480;9.806;2024-01-30T13:36:38;10.77;;;7.00;;
19347;SDS011;9810;52.480;9.806;2024-01-30T13:39:06;10.80;;;6.20;;
19347;SDS011;9810;52.480;9.806;2024-01-30T13:41:35;9.70;;;6.20;;
19347;SDS011;9810;52.480;9.806;2024-01-30T13:44:02;13.30;;;6.73;;
19347;SDS011;9810;52.480;9.806;2024-01-30T13:46:30;13.20;;;6.10;;
19347;SDS011;9810;52.480;9.806;2024-01-30T13:48:57;10.80;;;6.47;;
19347;SDS011;9810;52.480;9.806;2024-01-30T13:51:26;11.60;;;7.13;;
19347;SDS011;9810;52.480;9.806;2024-01-30T13:53:53;9.83;;;5.80;;
19347;SDS011;9810;52.480;9.806;2024-01-30T13:56:21;11.97;;;5.90;;
19347;SDS011;9810;52.480;9.806;2024-01-30T13:58:48;9.57;;;5.57;;
19347;SDS011;9810;52.480;9.806;2024-01-30T14:01:16;13.30;;;5.47;;
19347;SDS011;9810;52.480;9.806;2024-01-30T14:03:43;11.30;;;7.03;;
19347;SDS011;9810;52.480;9.806;2024-01-30T14:06:10;8.33;;;6.67;;
19347;SDS011;9810;52.480;9.806;2024-01-30T14:08:39;10.30;;;6.17;;
19347;SDS011;9810;52.480;9.806;2024-01-30T14:11:06;8.83;;;5.03;;
19347;SDS011;9810;52.480;9.806;2024-01-30T14:13:35;8.47;;;6.07;;
19347;SDS011;9810;52.480;9.806;2024-01-30T14:16:02;9.97;;;5.40;;
19347;SDS011;9810;52.480;9.806;2024-01-30T14:18:29;11.13;;;6.33;;
19347;SDS011;9810;52.480;9.806;2024-01-30T14:20:57;10.97;;;5.63;;
19347;SDS011;9810;52.480;9.806;2024-01-30T14:23:24;8.50;;;5.30;;
19347;SDS011;9810;52.480;9.806;2024-01-30T14:25:53;7.97;;;5.93;;
19347;SDS011;9810;52.480;9.806;2024-01-30T14:28:20;9.40;;;5.80;;
19347;SDS011;9810;52.480;9.806;2024-01-30T14:30:47;10.33;;;5.20;;
19347;SDS011;9810;52.480;9.806;2024-01-30T14:33:14;8.37;;;4.53;;
19347;SDS011;9810;52.480;9.806;2024-01-30T14:35:42;7.43;;;5.10;;
19347;SDS011;9810;52.480;9.806;2024-01-30T14:38:09;10.20;;;5.20;;
19347;SDS011;9810;52.480;9.806;2024-01-30T14:40:37;9.63;;;5.43;;
19347;SDS011;9810;52.480;9.806;2024-01-30T14:43:05;11.00;;;5.50;;
19347;SDS011;9810;52.480;9.806;2024-01-30T14:45:33;11.90;;;5.33;;
19347;SDS011;9810;52.480;9.806;2024-01-30T14:48:00;8.77;;;5.23;;
19347;SDS011;9810;52.480;9.806;2024-01-30T14:50:27;7.53;;;5.17;;
19347;SDS011;9810;52.480;9.806;2024-01-30T14:52:54;9.73;;;5.97;;